createdAt,value
2022-11-05T00:00:16.581Z,8.34
2022-11-05T00:03:01.351Z,8.28
2022-11-05T00:05:46.665Z,8.16
2022-11-05T00:08:32.425Z,8.13
2022-11-05T00:10:58.893Z,8.11
2022-11-05T00:13:44.050Z,8.07
2022-11-05T00:16:42.277Z,8.01
2022-11-05T00:19:09.981Z,8.00
2022-11-05T00:21:57.100Z,7.83
2022-11-05T00:24:42.783Z,7.73
2022-11-05T00:27:09.396Z,7.63
2022-11-05T00:29:36.084Z,7.62
2022-11-05T00:32:02.881Z,7.66
2022-11-05T00:34:29.307Z,7.68
2022-11-05T00:36:56.046Z,7.64
2022-11-05T00:39:22.520Z,7.54
2022-11-05T00:42:08.890Z,7.51
2022-11-05T00:44:54.062Z,7.37
2022-11-05T00:47:38.982Z,7.34
2022-11-05T00:50:05.725Z,7.39
2022-11-05T00:52:50.838Z,7.36
2022-11-05T00:55:17.276Z,7.34
2022-11-05T00:57:43.699Z,7.38
2022-11-05T01:00:11.251Z,7.34
2022-11-05T01:02:37.823Z,7.29
2022-11-05T01:05:04.616Z,7.25
2022-11-05T01:07:31.164Z,7.21
2022-11-05T01:09:57.626Z,7.23
2022-11-05T01:12:24.025Z,7.17
2022-11-05T01:14:50.419Z,7.12
2022-11-05T01:17:16.973Z,7.07
2022-11-05T01:19:43.422Z,7.03
2022-11-05T01:22:09.849Z,6.98
2022-11-05T01:24:36.256Z,6.92
2022-11-05T01:27:02.690Z,6.94
2022-11-05T01:29:29.101Z,6.91
2022-11-05T01:31:55.538Z,6.93
2022-11-05T01:34:21.958Z,6.99
2022-11-05T01:36:48.432Z,6.97
2022-11-05T01:39:15.236Z,6.90
2022-11-05T01:41:41.666Z,6.79
2022-11-05T01:44:47.826Z,6.71
2022-11-05T01:47:32.333Z,6.70
2022-11-05T01:50:02.872Z,6.61
2022-11-05T01:52:34.993Z,6.58
2022-11-05T01:55:02.907Z,6.54
2022-11-05T01:57:30.660Z,6.54
2022-11-05T02:00:00.022Z,6.53
2022-11-05T02:02:27.140Z,6.47
2022-11-05T02:05:06.663Z,6.42
2022-11-05T02:07:33.825Z,6.41
2022-11-05T02:10:08.867Z,6.43
2022-11-05T02:12:38.478Z,6.49
2022-11-05T02:15:06.343Z,6.44
2022-11-05T02:17:55.262Z,6.42
2022-11-05T02:20:26.433Z,6.38
2022-11-05T02:23:19.018Z,6.36
2022-11-05T02:26:16.527Z,6.30
2022-11-05T02:29:27.648Z,6.27
2022-11-05T02:31:54.018Z,6.25
2022-11-05T02:34:57.700Z,6.21
2022-11-05T02:37:27.091Z,6.22
2022-11-05T02:40:08.480Z,6.21
2022-11-05T02:42:39.593Z,6.27
2022-11-05T02:45:37.549Z,6.20
2022-11-05T02:48:30.733Z,6.19
2022-11-05T02:51:13.737Z,6.13
2022-11-05T02:54:03.489Z,6.15
2022-11-05T02:56:36.585Z,6.18
2022-11-05T02:59:03.017Z,6.15
2022-11-05T03:01:29.519Z,6.21
2022-11-05T03:04:00.695Z,6.23
2022-11-05T03:06:53.213Z,6.23
2022-11-05T03:10:05.747Z,6.24
2022-11-05T03:12:38.145Z,6.16
2022-11-05T03:15:39.404Z,6.16
2022-11-05T03:18:14.876Z,6.20
2022-11-05T03:20:57.096Z,6.15
2022-11-05T03:23:45.037Z,6.22
2022-11-05T03:26:18.422Z,6.31
2022-11-05T03:28:50.472Z,6.28
2022-11-05T03:31:19.469Z,6.20
2022-11-05T03:33:48.137Z,6.23
2022-11-05T03:36:21.730Z,6.23
2022-11-05T03:38:51.464Z,6.19
2022-11-05T03:41:20.352Z,6.10
2022-11-05T03:43:51.109Z,6.08
2022-11-05T03:46:30.555Z,6.03
2022-11-05T03:49:01.684Z,6.01
2022-11-05T03:51:48.429Z,5.97
2022-11-05T03:54:15.304Z,6.02
2022-11-05T03:56:51.972Z,6.10
2022-11-05T03:59:20.177Z,6.10
2022-11-05T04:01:47.958Z,6.06
2022-11-05T04:04:14.479Z,6.00
2022-11-05T04:06:59.556Z,6.02
2022-11-05T04:09:44.306Z,6.04
2022-11-05T04:12:29.697Z,5.97
2022-11-05T04:14:56.400Z,5.96
2022-11-05T04:17:22.853Z,5.97
2022-11-05T04:20:07.887Z,5.94
2022-11-05T04:22:54.264Z,5.91
2022-11-05T04:25:22.105Z,5.92
2022-11-05T04:27:49.141Z,5.88
2022-11-05T04:30:21.860Z,5.87
2022-11-05T04:33:00.921Z,5.79
2022-11-05T04:35:30.077Z,5.79
2022-11-05T04:37:56.852Z,5.82
2022-11-05T04:40:23.709Z,5.87
2022-11-05T04:42:50.185Z,5.93
2022-11-05T04:45:16.891Z,5.94
2022-11-05T04:47:43.312Z,5.92
2022-11-05T04:50:12.034Z,5.95
2022-11-05T04:52:39.354Z,5.99
2022-11-05T04:55:06.806Z,5.96
2022-11-05T04:57:33.433Z,6.04
2022-11-05T04:59:59.924Z,6.11
2022-11-05T05:02:26.548Z,6.21
2022-11-05T05:04:53.522Z,6.31
2022-11-05T05:07:19.941Z,6.29
2022-11-05T05:09:46.381Z,6.41
2022-11-05T05:12:12.860Z,6.52
2022-11-05T05:14:39.300Z,6.67
2022-11-05T05:17:05.851Z,6.74
2022-11-05T05:19:52.274Z,6.75
2022-11-05T05:22:18.723Z,6.84
2022-11-05T05:24:49.957Z,6.87
2022-11-05T05:27:18.921Z,6.86
2022-11-05T05:29:45.381Z,6.85
2022-11-05T05:32:11.801Z,6.88
2022-11-05T05:34:38.258Z,6.93
2022-11-05T05:37:04.848Z,6.94
2022-11-05T05:39:31.267Z,6.98
2022-11-05T05:41:57.701Z,7.00
2022-11-05T05:44:24.408Z,7.02
2022-11-05T05:46:50.806Z,7.03
2022-11-05T05:49:17.283Z,7.08
2022-11-05T05:51:43.755Z,7.14
2022-11-05T05:54:11.084Z,7.07
2022-11-05T05:56:37.522Z,7.10
2022-11-05T05:59:05.183Z,7.12
2022-11-05T06:01:31.841Z,7.05
2022-11-05T06:03:58.404Z,7.00
2022-11-05T06:06:24.876Z,6.91
2022-11-05T06:08:51.297Z,6.84
2022-11-05T06:11:17.833Z,6.76
2022-11-05T06:13:44.581Z,6.79
2022-11-05T06:16:11.069Z,6.79
2022-11-05T06:18:37.567Z,6.81
2022-11-05T06:21:10.169Z,6.78
2022-11-05T06:23:38.601Z,6.80
2022-11-05T06:26:07.469Z,6.83
2022-11-05T06:28:34.428Z,6.82
2022-11-05T06:31:01.382Z,6.84
2022-11-05T06:33:27.920Z,6.84
2022-11-05T06:35:54.967Z,6.83
2022-11-05T06:38:21.434Z,6.87
2022-11-05T06:40:47.855Z,6.87
2022-11-05T06:43:14.689Z,6.86
2022-11-05T06:45:41.390Z,6.86
2022-11-05T06:48:08.007Z,6.79
2022-11-05T06:50:34.583Z,6.63
2022-11-05T06:53:02.876Z,6.59
2022-11-05T06:55:31.311Z,6.63
2022-11-05T06:57:57.999Z,6.77
2022-11-05T07:00:24.906Z,6.75
2022-11-05T07:02:51.400Z,6.68
2022-11-05T07:05:18.092Z,6.57
2022-11-05T07:07:45.697Z,6.60
2022-11-05T07:10:15.223Z,6.66
2022-11-05T07:12:41.957Z,6.73
2022-11-05T07:15:09.620Z,6.68
2022-11-05T07:17:36.320Z,6.65
2022-11-05T07:20:03.849Z,6.65
2022-11-05T07:22:30.379Z,6.70
2022-11-05T07:24:56.798Z,6.69
2022-11-05T07:27:23.276Z,6.70
2022-11-05T07:29:49.731Z,6.82
2022-11-05T07:32:16.167Z,6.97
2022-11-05T07:34:42.759Z,7.10
2022-11-05T07:37:09.175Z,7.15
2022-11-05T07:39:35.610Z,7.17
2022-11-05T07:42:02.214Z,7.20
2022-11-05T07:44:28.646Z,7.27
2022-11-05T07:46:55.070Z,7.26
2022-11-05T07:49:21.517Z,7.27
2022-11-05T07:51:47.968Z,7.28
2022-11-05T07:54:14.401Z,7.31
2022-11-05T07:56:40.825Z,7.33
2022-11-05T07:59:07.569Z,7.35
2022-11-05T08:01:34.192Z,7.45
2022-11-05T08:04:00.694Z,7.48
2022-11-05T08:06:27.150Z,7.51
2022-11-05T08:08:53.537Z,7.57
2022-11-05T08:11:20.042Z,7.60
2022-11-05T08:13:46.648Z,7.65
2022-11-05T08:16:13.125Z,7.66
2022-11-05T08:18:39.582Z,7.71
2022-11-05T08:21:06.464Z,7.76
2022-11-05T08:23:33.435Z,7.69
2022-11-05T08:26:03.820Z,7.69
2022-11-05T08:28:30.313Z,7.74
2022-11-05T08:30:57.567Z,7.78
2022-11-05T08:33:25.138Z,7.81
2022-11-05T08:35:51.886Z,7.82
2022-11-05T08:38:19.677Z,7.85
2022-11-05T08:40:55.035Z,7.88
2022-11-05T08:43:22.484Z,7.91
2022-11-05T08:45:49.286Z,7.97
2022-11-05T08:48:18.354Z,7.99
2022-11-05T08:50:47.042Z,8.04
2022-11-05T08:53:14.420Z,8.09
2022-11-05T08:55:41.323Z,8.14
2022-11-05T08:58:12.541Z,8.19
2022-11-05T09:00:39.844Z,8.22
2022-11-05T09:03:08.215Z,8.27
2022-11-05T09:05:38.006Z,8.29
2022-11-05T09:08:08.962Z,8.36
2022-11-05T09:10:36.321Z,8.39
2022-11-05T09:13:04.232Z,8.44
2022-11-05T09:15:31.703Z,8.48
2022-11-05T09:17:58.125Z,8.54
2022-11-05T09:20:24.877Z,8.61
2022-11-05T09:22:51.602Z,8.63
2022-11-05T09:25:18.200Z,8.68
2022-11-05T09:27:44.762Z,8.72
2022-11-05T09:30:12.979Z,8.79
2022-11-05T09:32:39.648Z,8.88
2022-11-05T09:35:07.077Z,8.92
2022-11-05T09:37:33.688Z,8.99
2022-11-05T09:40:00.125Z,9.08
2022-11-05T09:42:39.521Z,9.13
2022-11-05T09:45:14.924Z,9.23
2022-11-05T09:47:47.220Z,9.28
2022-11-05T09:50:30.564Z,9.36
2022-11-05T09:52:57.790Z,9.43
2022-11-05T09:55:29.427Z,9.46
2022-11-05T09:58:14.364Z,9.48
2022-11-05T10:00:41.824Z,9.53
2022-11-05T10:03:15.513Z,9.60
2022-11-05T10:05:42.548Z,9.68
2022-11-05T10:08:19.808Z,9.77
2022-11-05T10:10:53.569Z,9.87
2022-11-05T10:13:23.433Z,9.92
2022-11-05T10:16:13.474Z,9.95
2022-11-05T10:18:42.848Z,10.07
2022-11-05T10:21:17.229Z,10.21
2022-11-05T10:23:45.428Z,10.27
2022-11-05T10:26:18.293Z,10.28
2022-11-05T10:28:44.712Z,10.29
2022-11-05T10:31:17.582Z,10.29
2022-11-05T10:33:54.391Z,10.30
2022-11-05T10:36:24.328Z,10.26
2022-11-05T10:38:51.504Z,10.23
2022-11-05T10:41:38.229Z,10.20
2022-11-05T10:44:04.933Z,10.16
2022-11-05T10:46:45.992Z,10.13
2022-11-05T10:49:21.670Z,10.15
2022-11-05T10:51:54.257Z,10.15
2022-11-05T10:54:23.271Z,10.11
2022-11-05T10:56:50.682Z,10.15
2022-11-05T10:59:21.537Z,10.10
2022-11-05T11:01:55.239Z,10.10
2022-11-05T11:04:25.331Z,10.11
2022-11-05T11:06:54.575Z,10.15
2022-11-05T11:09:24.369Z,10.15
2022-11-05T11:12:15.786Z,10.18
2022-11-05T11:14:42.208Z,10.20
2022-11-05T11:17:27.998Z,10.21
2022-11-05T11:20:25.271Z,10.20
2022-11-05T11:23:04.177Z,10.19
2022-11-05T11:25:41.479Z,10.20
2022-11-05T11:28:19.758Z,10.23
2022-11-05T11:30:55.052Z,10.31
2022-11-05T11:33:27.429Z,10.34
2022-11-05T11:35:54.208Z,10.39
2022-11-05T11:38:23.229Z,10.43
2022-11-05T11:40:50.246Z,10.43
2022-11-05T11:43:33.692Z,10.43
2022-11-05T11:46:05.057Z,10.43
2022-11-05T11:48:36.343Z,10.45
2022-11-05T11:51:29.091Z,10.50
2022-11-05T11:54:00.250Z,10.58
2022-11-05T11:56:27.703Z,10.64
2022-11-05T11:58:56.211Z,10.67
2022-11-05T12:01:31.722Z,10.68
2022-11-05T12:04:17.576Z,10.73
2022-11-05T12:06:56.104Z,10.76
2022-11-05T12:09:43.499Z,10.76
2022-11-05T12:12:14.090Z,10.77
2022-11-05T12:14:46.947Z,10.82
2022-11-05T12:17:22.226Z,10.84
2022-11-05T12:19:58.763Z,10.89
2022-11-05T12:22:43.208Z,10.93
2022-11-05T12:25:12.743Z,10.98
2022-11-05T12:27:39.117Z,11.04
2022-11-05T12:30:14.168Z,11.13
2022-11-05T12:32:57.930Z,11.24
2022-11-05T12:35:57.412Z,11.32
2022-11-05T12:38:52.551Z,11.31
2022-11-05T12:41:50.808Z,11.28
2022-11-05T12:45:04.801Z,11.29
2022-11-05T12:47:31.169Z,11.20
2022-11-05T12:50:20.336Z,11.20
2022-11-05T12:52:58.950Z,11.21
2022-11-05T12:55:30.834Z,11.19
2022-11-05T12:58:15.228Z,11.17
2022-11-05T13:00:47.811Z,11.23
2022-11-05T13:03:27.335Z,11.27
2022-11-05T13:06:17.307Z,11.27
2022-11-05T13:08:51.433Z,11.24
2022-11-05T13:11:26.618Z,11.20
2022-11-05T13:14:06.058Z,11.19
2022-11-05T13:16:43.744Z,11.20
2022-11-05T13:19:22.975Z,11.21
2022-11-05T13:21:59.509Z,11.24
2022-11-05T13:24:37.692Z,11.26
2022-11-05T13:27:11.820Z,11.26
2022-11-05T13:29:56.698Z,11.28
2022-11-05T13:32:31.618Z,11.30
2022-11-05T13:35:00.971Z,11.29
2022-11-05T13:37:49.456Z,11.28
2022-11-05T13:40:24.810Z,11.32
2022-11-05T13:43:10.355Z,11.34
2022-11-05T13:46:06.374Z,11.45
2022-11-05T13:48:49.107Z,11.61
2022-11-05T13:51:39.196Z,11.72
2022-11-05T13:54:34.747Z,11.65
2022-11-05T13:57:01.110Z,11.57
2022-11-05T13:59:58.728Z,11.55
2022-11-05T14:02:36.618Z,11.57
2022-11-05T14:05:05.193Z,11.50
2022-11-05T14:07:46.532Z,11.45
2022-11-05T14:10:38.773Z,11.42
2022-11-05T14:13:22.872Z,11.41
2022-11-05T14:16:02.022Z,11.37
2022-11-05T14:18:53.332Z,11.37
2022-11-05T14:21:25.756Z,11.34
2022-11-05T14:23:57.620Z,11.31
2022-11-05T14:26:29.539Z,11.30
2022-11-05T14:28:58.823Z,11.29
2022-11-05T14:34:56.336Z,11.22
2022-11-05T14:37:26.392Z,11.20
2022-11-05T14:39:54.891Z,11.16
2022-11-05T14:42:30.863Z,11.11
2022-11-05T14:45:02.261Z,11.08
2022-11-05T14:47:33.365Z,11.04
2022-11-05T14:50:27.553Z,11.04
2022-11-05T14:52:57.098Z,11.01
2022-11-05T14:55:34.388Z,11.01
2022-11-05T14:58:04.193Z,10.99
2022-11-05T15:00:36.552Z,11.00
2022-11-05T15:03:25.055Z,10.99
2022-11-05T15:05:52.913Z,10.97
2022-11-05T15:08:49.953Z,10.96
2022-11-05T15:11:40.600Z,10.94
2022-11-05T15:14:22.472Z,10.92
2022-11-05T15:17:08.521Z,10.92
2022-11-05T15:19:37.332Z,10.91
2022-11-05T15:22:10.969Z,10.91
2022-11-05T15:24:41.541Z,10.89
2022-11-05T15:27:30.787Z,10.92
2022-11-05T15:29:57.376Z,10.90
2022-11-05T15:32:25.922Z,10.87
2022-11-05T15:34:54.012Z,10.87
2022-11-05T15:37:21.901Z,10.85
2022-11-05T15:39:50.069Z,10.84
2022-11-05T15:42:25.803Z,10.81
2022-11-05T15:44:53.280Z,10.78
2022-11-05T15:47:24.203Z,10.76
2022-11-05T15:49:54.108Z,10.78
2022-11-05T15:52:23.523Z,10.76
2022-11-05T15:55:14.804Z,10.77
2022-11-05T15:57:50.873Z,10.76
2022-11-05T16:00:19.984Z,10.77
2022-11-05T16:02:59.298Z,10.76
2022-11-05T16:05:28.242Z,10.76
2022-11-05T16:07:58.377Z,10.75
2022-11-05T16:10:29.898Z,10.75
2022-11-05T16:12:56.847Z,10.76
2022-11-05T16:15:26.831Z,10.76
2022-11-05T16:17:58.680Z,10.74
2022-11-05T16:20:32.783Z,10.72
2022-11-05T16:23:21.882Z,10.71
2022-11-05T16:25:48.512Z,10.72
2022-11-05T16:28:17.652Z,10.74
2022-11-05T16:30:53.369Z,10.72
2022-11-05T16:33:19.869Z,10.70
2022-11-05T16:35:49.188Z,10.71
2022-11-05T16:38:16.717Z,10.70
2022-11-05T16:40:43.197Z,10.69
2022-11-05T16:43:22.933Z,10.69
2022-11-05T16:45:52.705Z,10.70
2022-11-05T16:48:19.156Z,10.69
2022-11-05T16:50:46.308Z,10.69
2022-11-05T16:53:13.263Z,10.69
2022-11-05T16:55:42.014Z,10.68
2022-11-05T16:58:21.081Z,10.69
2022-11-05T17:00:52.647Z,10.69
2022-11-05T17:03:19.178Z,10.67
2022-11-05T17:05:46.476Z,10.63
2022-11-05T17:08:13.320Z,10.62
2022-11-05T17:10:40.118Z,10.61
2022-11-05T17:13:06.568Z,10.61
2022-11-05T17:15:36.833Z,10.60
2022-11-05T17:18:04.980Z,10.59
2022-11-05T17:20:40.847Z,10.61
2022-11-05T17:23:13.165Z,10.61
2022-11-05T17:25:41.340Z,10.60
2022-11-05T17:28:08.830Z,10.62
2022-11-05T17:30:36.214Z,10.62
2022-11-05T17:33:02.894Z,10.63
2022-11-05T17:35:29.372Z,10.63
2022-11-05T17:37:55.797Z,10.63
2022-11-05T17:40:23.398Z,10.62
2022-11-05T17:42:50.911Z,10.62
2022-11-05T17:45:17.992Z,10.61
2022-11-05T17:47:44.508Z,10.61
2022-11-05T17:50:14.101Z,10.61
2022-11-05T17:52:40.586Z,10.60
2022-11-05T17:55:16.043Z,10.58
2022-11-05T17:57:47.154Z,10.60
2022-11-05T18:00:16.319Z,10.58
2022-11-05T18:02:43.065Z,10.58
2022-11-05T18:05:11.045Z,10.61
2022-11-05T18:07:37.565Z,10.59
2022-11-05T18:10:05.249Z,10.58
2022-11-05T18:12:32.168Z,10.58
2022-11-05T18:14:58.683Z,10.59
2022-11-05T18:17:25.111Z,10.59
2022-11-05T18:19:51.550Z,10.58
2022-11-05T18:22:19.454Z,10.60
2022-11-05T18:24:46.755Z,10.57
2022-11-05T18:27:13.288Z,10.54
2022-11-05T18:29:39.744Z,10.53
2022-11-05T18:32:06.852Z,10.52
2022-11-05T18:34:33.329Z,10.49
2022-11-05T18:36:59.743Z,10.48
2022-11-05T18:39:26.245Z,10.49
2022-11-05T18:41:52.662Z,10.46
2022-11-05T18:44:22.814Z,10.45
2022-11-05T18:46:58.164Z,10.45
2022-11-05T18:49:25.623Z,10.44
2022-11-05T18:51:52.065Z,10.44
2022-11-05T18:54:18.523Z,10.44
2022-11-05T18:56:45.400Z,10.44
2022-11-05T19:02:00.857Z,10.46
2022-11-05T19:04:27.830Z,10.45
2022-11-05T19:06:54.352Z,10.46
2022-11-05T19:09:20.988Z,10.46
2022-11-05T19:11:47.654Z,10.46
2022-11-05T19:14:14.259Z,10.47
2022-11-05T19:16:40.840Z,10.46
2022-11-05T19:19:07.536Z,10.44
2022-11-05T19:21:34.026Z,10.45
2022-11-05T19:24:02.053Z,10.45
2022-11-05T19:26:29.447Z,10.45
2022-11-05T19:29:01.731Z,10.44
2022-11-05T19:31:28.475Z,10.43
2022-11-05T19:33:55.289Z,10.42
2022-11-05T19:36:23.873Z,10.39
2022-11-05T19:38:56.198Z,10.38
2022-11-05T19:41:23.176Z,10.36
2022-11-05T19:43:50.277Z,10.33
2022-11-05T19:46:18.700Z,10.29
2022-11-05T19:48:45.661Z,10.27
2022-11-05T19:51:22.288Z,10.23
2022-11-05T19:53:51.323Z,10.19
2022-11-05T19:56:20.917Z,10.19
2022-11-05T19:58:47.865Z,10.19
2022-11-05T20:01:15.993Z,10.16
2022-11-05T20:03:42.723Z,10.17
2022-11-05T20:06:13.433Z,10.17
2022-11-05T20:08:59.944Z,10.13
2022-11-05T20:11:27.006Z,10.15
2022-11-05T20:13:53.465Z,10.15
2022-11-05T20:16:36.733Z,10.16
2022-11-05T20:19:07.294Z,10.16
2022-11-05T20:21:34.948Z,10.14
2022-11-05T20:24:01.720Z,10.13
2022-11-05T20:26:28.748Z,10.13
2022-11-05T20:28:55.540Z,10.13
2022-11-05T20:31:21.990Z,10.09
2022-11-05T20:33:48.786Z,10.10
2022-11-05T20:36:18.057Z,10.11
2022-11-05T20:38:48.813Z,10.13
2022-11-05T20:41:15.907Z,10.11
2022-11-05T20:43:42.623Z,10.13
2022-11-05T20:46:12.528Z,10.14
2022-11-05T20:48:39.093Z,10.10
2022-11-05T20:51:08.155Z,10.11
2022-11-05T20:53:35.896Z,10.14
2022-11-05T20:56:07.609Z,10.14
2022-11-05T20:58:35.570Z,10.12
2022-11-05T21:01:02.456Z,10.10
2022-11-05T21:03:28.890Z,10.08
2022-11-05T21:05:59.984Z,10.04
2022-11-05T21:08:27.776Z,10.00
2022-11-05T21:10:55.515Z,10.02
2022-11-05T21:13:22.634Z,10.01
2022-11-05T21:15:51.097Z,9.99
2022-11-05T21:18:18.724Z,9.95
2022-11-05T21:20:46.144Z,9.94
2022-11-05T21:23:13.650Z,9.93
2022-11-05T21:25:41.772Z,9.94
2022-11-05T21:28:10.180Z,9.91
2022-11-05T21:30:38.382Z,9.92
2022-11-05T21:33:05.816Z,9.92
2022-11-05T21:35:32.339Z,9.90
2022-11-05T21:37:59.297Z,9.91
2022-11-05T21:40:26.010Z,9.89
2022-11-05T21:42:52.744Z,9.89
2022-11-05T21:45:19.179Z,9.89
2022-11-05T21:47:45.594Z,9.89
2022-11-05T21:50:12.036Z,9.88
2022-11-05T21:52:56.806Z,9.88
2022-11-05T21:55:43.029Z,9.90
2022-11-05T21:58:35.595Z,9.91
2022-11-05T22:01:03.001Z,9.91
2022-11-05T22:03:29.975Z,9.92
2022-11-05T22:05:56.853Z,9.92
2022-11-05T22:08:23.280Z,9.91
2022-11-05T22:10:49.702Z,9.92
2022-11-05T22:13:16.124Z,9.92
2022-11-05T22:15:42.549Z,9.90
2022-11-05T22:18:09.065Z,9.92
2022-11-05T22:20:38.674Z,9.91
2022-11-05T22:23:10.034Z,9.91
2022-11-05T22:25:37.663Z,9.90
2022-11-05T22:28:04.560Z,9.88
2022-11-05T22:30:36.606Z,9.86
2022-11-05T22:33:03.061Z,9.85
2022-11-05T22:35:29.612Z,9.85
2022-11-05T22:37:56.039Z,9.85
2022-11-05T22:40:24.126Z,9.87
2022-11-05T22:42:50.849Z,9.85
2022-11-05T22:45:17.297Z,9.85
2022-11-05T22:47:43.788Z,9.85
2022-11-05T22:50:10.688Z,9.84
2022-11-05T22:52:37.176Z,9.83
2022-11-05T22:55:06.112Z,9.83
2022-11-05T22:57:32.574Z,9.83
2022-11-05T22:59:58.988Z,9.86
2022-11-05T23:02:25.563Z,9.87
2022-11-05T23:04:52.201Z,9.83
2022-11-05T23:07:37.530Z,9.85
2022-11-05T23:10:22.621Z,9.85
2022-11-05T23:12:49.087Z,9.83
2022-11-05T23:15:34.218Z,9.81
2022-11-05T23:18:19.611Z,9.79
2022-11-05T23:21:04.563Z,9.82
2022-11-05T23:23:49.335Z,9.80
2022-11-05T23:26:34.252Z,9.81
2022-11-05T23:29:00.733Z,9.81
2022-11-05T23:31:45.701Z,9.78
2022-11-05T23:34:12.146Z,9.76
2022-11-05T23:36:57.024Z,9.77
2022-11-05T23:39:23.451Z,9.75
2022-11-05T23:42:08.527Z,9.74
2022-11-05T23:44:53.223Z,9.73
2022-11-05T23:47:38.238Z,9.72
2022-11-05T23:50:04.877Z,9.68
2022-11-05T23:52:31.296Z,9.63
2022-11-05T23:54:57.732Z,9.62
2022-11-05T23:57:24.157Z,9.61
2022-11-05T23:59:50.605Z,9.60
